Time;durP1;ratioP1;P1;durP2;ratioP2;P2;SDS_P1;SDS_P2;PMS_P1;PMS_P2;Temp;Humidity;BMP_temperature;BMP_pressure;BME280_temperature;BME280_humidity;BME280_pressure;Samples;Min_cycle;Max_cycle;Signal;HPM_P1;HPM_P2
2022/01/19 00:01:41;;;;;;;13.63;8.55;;;7.00;60.10;;;;;;6232600;23;20000;-58
2022/01/19 00:04:07;;;;;;;13.07;8.48;;;7.00;60.00;;;;;;6235284;23;20027;-58
2022/01/19 00:06:33;;;;;;;16.25;9.20;;;7.00;60.00;;;;;;6234769;23;20015;-56
2022/01/19 00:08:59;;;;;;;18.33;11.13;;;7.00;60.00;;;;;;6233138;23;20536;-58
2022/01/19 00:11:26;;;;;;;19.10;11.63;;;6.90;60.00;;;;;;6234258;23;20008;-58
2022/01/19 00:13:52;;;;;;;30.30;16.35;;;6.90;60.00;;;;;;6234579;23;20007;-55
2022/01/19 00:16:20;;;;;;;28.63;14.88;;;6.90;60.10;;;;;;6233108;22;19996;-58
2022/01/19 00:18:47;;;;;;;26.52;13.05;;;6.80;60.20;;;;;;6240985;23;20001;-57
2022/01/19 00:21:13;;;;;;;13.68;8.00;;;6.80;60.30;;;;;;6234074;23;20004;-58
2022/01/19 00:23:40;;;;;;;10.65;5.35;;;6.80;60.50;;;;;;6232381;23;20012;-58
2022/01/19 00:26:06;;;;;;;6.15;4.13;;;6.80;61.30;;;;;;6234693;23;20011;-58
2022/01/19 00:28:32;;;;;;;8.82;4.30;;;6.80;60.70;;;;;;6231848;23;19996;-58
2022/01/19 00:30:59;;;;;;;5.45;4.15;;;6.70;60.90;;;;;;6234795;23;20004;-58
2022/01/19 00:33:25;;;;;;;6.20;3.72;;;6.80;61.20;;;;;;6233126;23;20015;-58
2022/01/19 00:35:52;;;;;;;8.15;3.72;;;6.80;61.30;;;;;;6231469;23;19997;-58
2022/01/19 00:38:18;;;;;;;7.13;3.58;;;6.80;61.30;;;;;;6233082;22;20001;-59
2022/01/19 00:40:45;;;;;;;7.03;3.85;;;6.80;61.30;;;;;;6233125;22;20008;-58
2022/01/19 00:43:12;;;;;;;5.55;3.53;;;6.80;61.30;;;;;;6234673;23;20422;-57
2022/01/19 00:45:38;;;;;;;6.75;4.32;;;6.80;61.30;;;;;;6234730;23;19996;-58
2022/01/19 00:48:05;;;;;;;6.72;3.83;;;6.90;61.50;;;;;;6232024;23;20328;-58
2022/01/19 00:50:31;;;;;;;8.77;4.43;;;6.90;61.50;;;;;;6234159;23;20012;-58
2022/01/19 00:52:58;;;;;;;6.45;3.80;;;6.90;61.60;;;;;;6234218;23;20430;-58
2022/01/19 00:55:26;;;;;;;7.88;4.00;;;6.90;61.70;;;;;;6234912;23;19996;-57
2022/01/19 00:57:53;;;;;;;7.68;3.85;;;6.90;61.60;;;;;;6231210;23;20000;-58
2022/01/19 01:00:26;;;;;;;7.43;3.53;;;7.00;61.70;;;;;;6230289;23;20000;-58
2022/01/19 01:02:52;;;;;;;6.72;3.30;;;7.00;61.70;;;;;;6243025;23;20000;-57
2022/01/19 01:05:19;;;;;;;3.70;3.03;;;7.00;61.70;;;;;;6234881;23;20337;-54
2022/01/19 01:07:45;;;;;;;6.88;3.78;;;7.00;61.80;;;;;;6231370;23;20012;-58
2022/01/19 01:10:15;;;;;;;5.63;3.20;;;7.00;61.90;;;;;;6232288;23;20302;-58
2022/01/19 01:12:45;;;;;;;4.53;2.45;;;7.10;62.00;;;;;;6234022;23;20007;-58
2022/01/19 01:20:36;;;;;;;4.85;2.85;;;7.20;62.10;;;;;;6243713;23;20031;-58
2022/01/19 01:23:08;;;;;;;6.25;2.88;;;7.20;62.10;;;;;;6234800;23;20000;-56
2022/01/19 01:25:34;;;;;;;3.30;2.20;;;7.20;62.10;;;;;;6231591;23;20426;-58
2022/01/19 01:28:01;;;;;;;4.80;2.53;;;7.30;62.20;;;;;;6232064;23;19996;-58
2022/01/19 01:30:27;;;;;;;4.68;2.42;;;7.30;62.20;;;;;;6231343;23;20008;-58
2022/01/19 01:32:54;;;;;;;4.18;2.60;;;7.30;62.10;;;;;;6229224;23;20008;-58
2022/01/19 01:35:20;;;;;;;3.72;2.25;;;7.40;62.00;;;;;;6234489;23;19997;-57
2022/01/19 01:37:46;;;;;;;3.70;2.38;;;7.40;62.00;;;;;;6232867;23;20261;-58
2022/01/19 01:40:13;;;;;;;2.50;1.98;;;7.40;61.90;;;;;;6234847;23;20007;-58
2022/01/19 01:42:40;;;;;;;6.03;2.60;;;7.40;61.90;;;;;;6232555;22;20013;-56
2022/01/19 01:45:13;;;;;;;2.97;2.30;;;7.50;61.90;;;;;;6234312;23;19996;-58
2022/01/19 01:47:45;;;;;;;2.97;2.40;;;7.50;61.90;;;;;;6229239;22;20023;-57
2022/01/19 01:55:42;;;;;;;;;;;7.60;62.50;;;;;;6244954;23;20005;-59
2022/01/19 01:58:08;;;;;;;3.10;2.70;;;7.70;61.80;;;;;;6232735;23;20010;-58
2022/01/19 02:00:34;;;;;;;3.45;2.50;;;7.70;61.50;;;;;;6232149;23;19996;-57
2022/01/19 02:03:00;;;;;;;3.30;2.40;;;7.70;61.30;;;;;;6232846;23;19996;-58
2022/01/19 02:05:27;;;;;;;3.28;2.42;;;7.70;61.30;;;;;;6232662;23;20309;-58
2022/01/19 02:10:55;;;;;;;3.28;2.70;;;7.80;61.10;;;;;;6232961;23;20004;-58
2022/01/19 02:24:20;;;;;;;5.22;3.13;;;7.90;60.80;;;;;;6243045;23;20314;-58
2022/01/19 02:31:55;;;;;;;3.13;2.50;;;7.90;60.60;;;;;;6231913;23;20464;-58
2022/01/19 02:42:36;;;;;;;3.35;2.80;;;8.00;60.50;;;;;;6241801;23;20008;-58
2022/01/19 02:50:15;;;;;;;3.05;2.70;;;8.00;60.40;;;;;;6245192;23;20004;-58
2022/01/19 02:52:41;;;;;;;4.07;2.75;;;8.10;60.50;;;;;;6235969;23;20008;-56
2022/01/19 02:55:08;;;;;;;3.55;2.67;;;8.10;60.50;;;;;;6235782;23;20007;-58
2022/01/19 02:57:36;;;;;;;4.35;2.97;;;8.00;60.30;;;;;;6233758;23;20000;-59
2022/01/19 03:11:06;;;;;;;5.93;2.30;;;8.20;60.00;;;;;;6246002;23;20008;-56
2022/01/19 03:13:32;;;;;;;2.90;2.17;;;8.20;60.00;;;;;;6235015;22;20417;-57
2022/01/19 03:15:58;;;;;;;3.03;2.28;;;8.20;59.90;;;;;;6233733;22;20012;-58
2022/01/19 03:18:24;;;;;;;3.15;2.33;;;8.20;59.90;;;;;;6232585;22;20429;-58
2022/01/19 03:20:50;;;;;;;4.70;2.65;;;8.20;59.90;;;;;;6233191;22;20417;-58
2022/01/19 03:23:20;;;;;;;2.63;2.40;;;8.20;59.80;;;;;;6235886;23;20008;-58
2022/01/19 03:25:50;;;;;;;2.40;2.00;;;8.20;59.70;;;;;;6235317;22;20373;-56
2022/01/19 03:28:18;;;;;;;3.00;2.22;;;8.20;59.60;;;;;;6230377;23;20004;-57
2022/01/19 03:30:46;;;;;;;3.28;2.20;;;8.20;59.50;;;;;;6233759;22;20012;-58
2022/01/19 03:33:12;;;;;;;2.55;2.05;;;8.20;59.40;;;;;;6229136;23;20004;-58
2022/01/19 03:35:39;;;;;;;5.93;2.15;;;8.20;59.40;;;;;;6229572;23;20012;-58
2022/01/19 03:38:08;;;;;;;3.28;2.08;;;8.20;59.40;;;;;;6231678;23;20011;-58
2022/01/19 03:40:36;;;;;;;3.53;2.20;;;8.20;59.30;;;;;;6234042;23;20008;-58
2022/01/19 03:43:05;;;;;;;3.00;2.10;;;8.20;59.40;;;;;;6231841;23;20314;-58
2022/01/19 03:45:34;;;;;;;3.63;2.35;;;8.20;59.30;;;;;;6233864;23;20042;-58
2022/01/19 03:50:34;;;;;;;2.80;2.13;;;8.20;59.10;;;;;;6244857;23;20008;-58
2022/01/19 03:53:01;;;;;;;2.97;2.10;;;8.20;59.10;;;;;;6230837;23;20019;-58
2022/01/19 03:55:28;;;;;;;5.22;2.28;;;8.20;59.10;;;;;;6235310;23;20015;-58
2022/01/19 03:57:54;;;;;;;3.75;2.15;;;8.20;59.10;;;;;;6232966;23;20334;-56
2022/01/19 04:00:21;;;;;;;4.78;2.05;;;8.10;59.00;;;;;;6231543;23;20002;-56
2022/01/19 04:02:50;;;;;;;4.13;2.40;;;8.10;59.00;;;;;;6232067;22;20004;-58
2022/01/19 04:05:39;;;;;;;4.18;2.25;;;8.10;59.00;;;;;;6233318;22;20026;-58
2022/01/19 04:08:03;;;;;;;3.78;2.58;;;8.10;58.90;;;;;;6233740;22;20004;-58
2022/01/19 04:10:30;;;;;;;3.25;2.20;;;8.10;59.00;;;;;;6234938;23;20318;-58
2022/01/19 04:13:09;;;;;;;5.53;2.53;;;8.10;58.90;;;;;;6234431;23;20004;-57
2022/01/19 04:15:38;;;;;;;3.70;2.50;;;8.10;58.90;;;;;;6245675;23;20000;-58
2022/01/19 04:18:04;;;;;;;3.30;2.50;;;8.10;58.80;;;;;;6232331;22;20020;-56
2022/01/19 04:20:37;;;;;;;2.15;1.95;;;8.10;58.80;;;;;;6234303;23;20004;-58
2022/01/19 04:23:04;;;;;;;3.58;2.40;;;8.10;58.80;;;;;;6235321;22;20008;-57
2022/01/19 04:25:30;;;;;;;3.47;2.35;;;8.10;58.90;;;;;;6233289;22;20365;-59
2022/01/19 04:27:56;;;;;;;3.70;2.40;;;8.10;59.00;;;;;;6231055;23;20012;-58
2022/01/19 04:30:26;;;;;;;7.07;2.40;;;8.10;58.90;;;;;;6233230;22;20008;-58
2022/01/19 04:35:29;;;;;;;3.95;2.45;;;8.10;58.80;;;;;;6243125;23;20003;-58
2022/01/19 05:07:34;;;;;;;3.50;2.42;;;8.10;58.40;;;;;;6242517;23;20008;-59
2022/01/19 05:15:11;;;;;;;2.60;1.90;;;8.10;58.30;;;;;;6244063;23;20007;-56
2022/01/19 05:17:39;;;;;;;3.55;1.80;;;8.10;58.30;;;;;;6227200;22;20012;-59
2022/01/19 05:20:06;;;;;;;4.03;2.05;;;8.10;58.30;;;;;;6232944;23;20011;-58
2022/01/19 05:22:32;;;;;;;2.72;2.08;;;8.10;58.30;;;;;;6233872;22;20015;-58
2022/01/19 05:24:59;;;;;;;2.60;1.85;;;8.10;58.20;;;;;;6233283;23;20003;-58
2022/01/19 05:27:25;;;;;;;3.15;2.03;;;8.10;58.20;;;;;;6232877;23;20334;-58
2022/01/19 05:29:51;;;;;;;2.50;2.03;;;8.10;58.20;;;;;;6232091;23;20004;-58
2022/01/19 05:32:18;;;;;;;2.97;2.15;;;8.10;58.20;;;;;;6231806;23;19996;-56
2022/01/19 05:34:44;;;;;;;4.80;2.65;;;8.10;58.10;;;;;;6233723;23;20000;-58
2022/01/19 05:37:10;;;;;;;3.92;2.25;;;8.10;58.20;;;;;;6230756;23;20001;-58
2022/01/19 05:39:37;;;;;;;3.95;2.80;;;8.10;58.10;;;;;;6232017;22;20004;-58
2022/01/19 05:42:03;;;;;;;4.60;2.70;;;8.10;58.10;;;;;;6234238;23;19996;-58
2022/01/19 05:44:29;;;;;;;5.03;2.83;;;8.10;58.10;;;;;;6233399;22;20008;-58
2022/01/19 05:46:56;;;;;;;3.17;2.65;;;8.10;58.10;;;;;;6232139;23;20004;-58
2022/01/19 05:49:22;;;;;;;5.22;2.83;;;8.10;58.10;;;;;;6231715;23;20008;-58
2022/01/19 05:51:48;;;;;;;22.45;11.10;;;8.10;58.60;;;;;;6230087;23;20004;-58
2022/01/19 05:54:15;;;;;;;10.82;5.55;;;8.10;58.20;;;;;;6231950;22;20004;-59
2022/01/19 05:56:41;;;;;;;5.55;3.90;;;8.10;58.20;;;;;;6232119;22;20445;-58
2022/01/19 05:59:07;;;;;;;6.70;4.07;;;8.10;58.20;;;;;;6233479;23;20333;-59
2022/01/19 06:01:33;;;;;;;6.55;3.85;;;8.10;58.20;;;;;;6237941;23;20012;-57
2022/01/19 06:03:59;;;;;;;4.20;3.40;;;8.10;58.20;;;;;;6242081;23;20000;-57
2022/01/19 06:06:25;;;;;;;4.82;3.40;;;8.10;58.10;;;;;;6242655;23;20004;-56
2022/01/19 06:09:08;;;;;;;4.13;3.03;;;8.10;58.10;;;;;;6241509;22;20004;-56
2022/01/19 06:11:34;;;;;;;5.95;3.97;;;8.10;58.10;;;;;;6242730;23;20251;-58
2022/01/19 06:14:00;;;;;;;4.82;3.60;;;8.10;58.20;;;;;;6230815;23;20008;-58
2022/01/19 06:16:27;;;;;;;4.18;3.53;;;8.10;58.20;;;;;;6229844;22;20425;-58
2022/01/19 06:18:53;;;;;;;6.60;3.92;;;8.10;58.30;;;;;;6243289;23;20433;-58
2022/01/19 06:21:20;;;;;;;4.93;4.13;;;8.10;58.10;;;;;;6233362;23;20471;-58
2022/01/19 06:23:46;;;;;;;7.70;4.47;;;8.10;58.10;;;;;;6233612;23;20027;-59
2022/01/19 06:26:13;;;;;;;5.53;4.47;;;8.10;58.00;;;;;;6231694;23;20011;-58
2022/01/19 06:28:39;;;;;;;6.32;4.60;;;8.10;58.50;;;;;;6234174;23;20447;-59
2022/01/19 06:31:06;;;;;;;7.13;5.45;;;8.10;58.00;;;;;;6232929;23;20201;-58
2022/01/19 06:33:32;;;;;;;8.05;4.53;;;8.10;58.00;;;;;;6234023;23;20008;-58
2022/01/19 06:35:58;;;;;;;6.00;5.03;;;8.10;58.00;;;;;;6233507;23;20000;-58
2022/01/19 06:38:24;;;;;;;37.50;16.48;;;8.10;58.00;;;;;;6231742;23;20011;-58
2022/01/19 06:40:51;;;;;;;25.05;11.38;;;8.10;58.00;;;;;;6233015;22;20004;-58
2022/01/19 06:43:18;;;;;;;10.65;6.65;;;8.10;58.00;;;;;;6234437;23;20012;-58
2022/01/19 06:45:44;;;;;;;8.25;5.78;;;8.10;58.00;;;;;;6232552;23;20448;-59
2022/01/19 06:48:10;;;;;;;10.18;6.43;;;8.10;58.00;;;;;;6230808;23;20000;-58
2022/01/19 06:50:36;;;;;;;8.55;5.45;;;8.10;57.90;;;;;;6234178;23;20015;-58
2022/01/19 06:53:02;;;;;;;8.60;5.68;;;8.10;57.90;;;;;;6234067;23;20417;-58
2022/01/19 06:55:29;;;;;;;7.78;5.40;;;8.20;57.90;;;;;;6226710;23;20051;-58
2022/01/19 06:57:55;;;;;;;10.85;6.18;;;8.10;57.80;;;;;;6233604;23;19996;-57
2022/01/19 07:00:21;;;;;;;12.32;5.10;;;8.10;57.90;;;;;;6231892;23;20011;-57
2022/01/19 07:02:47;;;;;;;6.25;4.97;;;8.10;57.90;;;;;;6230567;23;20008;-58
2022/01/19 07:05:14;;;;;;;8.05;5.45;;;8.20;57.90;;;;;;6231205;22;20004;-59
2022/01/19 07:07:40;;;;;;;7.10;5.68;;;8.10;57.90;;;;;;6233723;23;20010;-58
2022/01/19 07:10:08;;;;;;;7.95;5.90;;;8.10;57.80;;;;;;6233732;23;20004;-58
2022/01/19 07:12:34;;;;;;;9.53;6.83;;;8.10;57.70;;;;;;6233276;22;20015;-58
2022/01/19 07:15:01;;;;;;;9.88;6.35;;;8.10;57.70;;;;;;6232943;23;20219;-58
2022/01/19 07:17:27;;;;;;;10.15;6.40;;;8.10;57.70;;;;;;6231188;22;20012;-58
2022/01/19 07:19:53;;;;;;;9.90;6.82;;;8.10;57.70;;;;;;6232763;23;20004;-59
2022/01/19 07:22:19;;;;;;;9.35;6.43;;;8.10;57.60;;;;;;6231779;23;20007;-58
2022/01/19 07:24:45;;;;;;;9.77;6.63;;;8.10;57.60;;;;;;6228816;23;19996;-58
2022/01/19 07:27:12;;;;;;;8.48;6.43;;;8.10;57.70;;;;;;6228298;23;20339;-58
2022/01/19 07:29:38;;;;;;;13.45;6.75;;;8.10;57.70;;;;;;6225216;23;20007;-56
2022/01/19 07:32:05;;;;;;;11.73;6.55;;;8.10;58.20;;;;;;6230631;23;20302;-58
2022/01/19 07:34:31;;;;;;;11.93;6.97;;;8.10;57.80;;;;;;6233363;23;20004;-57
2022/01/19 07:36:58;;;;;;;8.52;6.13;;;8.10;57.80;;;;;;6229272;23;20000;-58
2022/01/19 07:39:24;;;;;;;8.57;6.20;;;8.00;57.70;;;;;;6232615;22;20425;-58
2022/01/19 07:41:53;;;;;;;8.20;5.95;;;8.10;57.80;;;;;;6233597;23;20254;-58
2022/01/19 07:44:19;;;;;;;7.55;5.63;;;8.10;57.90;;;;;;6232809;22;20004;-58
2022/01/19 07:46:46;;;;;;;10.07;6.38;;;8.10;57.90;;;;;;6231178;22;20409;-57
2022/01/19 07:49:12;;;;;;;8.25;5.88;;;8.10;57.90;;;;;;6230094;23;20019;-56
2022/01/19 07:51:39;;;;;;;8.95;6.45;;;8.10;57.90;;;;;;6234140;23;20011;-58
2022/01/19 07:54:05;;;;;;;9.52;6.47;;;8.10;57.70;;;;;;6233353;23;20015;-56
2022/01/19 07:56:31;;;;;;;10.63;5.53;;;8.10;57.70;;;;;;6232641;23;20015;-58
2022/01/19 07:58:57;;;;;;;8.65;6.07;;;8.10;57.70;;;;;;6233307;23;20359;-58
2022/01/19 08:01:24;;;;;;;10.35;6.43;;;8.10;57.70;;;;;;6229504;23;20008;-58
2022/01/19 08:03:50;;;;;;;8.90;6.68;;;8.10;57.70;;;;;;6229862;23;19996;-58
2022/01/19 08:06:16;;;;;;;13.90;6.28;;;8.10;57.70;;;;;;6226938;23;20210;-58
2022/01/19 08:08:42;;;;;;;12.45;6.97;;;8.10;57.70;;;;;;6227382;23;20003;-58
2022/01/19 08:11:09;;;;;;;9.90;6.00;;;8.10;57.60;;;;;;6228607;23;20015;-58
2022/01/19 08:13:35;;;;;;;8.15;6.00;;;8.10;57.60;;;;;;6229085;23;20004;-56
2022/01/19 08:16:01;;;;;;;9.77;6.70;;;8.10;57.50;;;;;;6228818;23;20004;-58
2022/01/19 08:18:27;;;;;;;9.27;6.20;;;8.10;57.40;;;;;;6231461;22;20020;-58
2022/01/19 08:20:53;;;;;;;9.02;6.05;;;8.10;57.40;;;;;;6234105;23;20008;-56
2022/01/19 08:23:20;;;;;;;12.85;6.53;;;8.10;57.30;;;;;;6231205;23;19996;-56
2022/01/19 08:25:46;;;;;;;8.65;6.28;;;8.10;57.30;;;;;;6228380;23;20429;-59
2022/01/19 08:28:12;;;;;;;8.85;6.63;;;8.20;57.30;;;;;;6228458;23;20000;-55
2022/01/19 08:30:38;;;;;;;9.18;6.32;;;8.20;57.20;;;;;;6225856;23;20000;-58
2022/01/19 08:33:04;;;;;;;10.50;6.60;;;8.20;57.10;;;;;;6223420;23;19992;-57
2022/01/19 08:35:31;;;;;;;9.07;6.47;;;8.20;57.00;;;;;;6225578;23;20001;-58
2022/01/19 08:37:57;;;;;;;9.85;6.22;;;8.20;57.00;;;;;;6228477;23;20685;-58
2022/01/19 08:40:28;;;;;;;12.30;6.38;;;8.20;56.90;;;;;;6229675;23;20381;-58
2022/01/19 08:42:54;;;;;;;10.18;5.95;;;8.20;56.90;;;;;;6228176;22;20004;-58
2022/01/19 08:45:21;;;;;;;8.82;6.28;;;8.20;56.90;;;;;;6230131;23;20000;-58
2022/01/19 08:47:47;;;;;;;9.13;6.07;;;8.20;56.80;;;;;;6232646;23;20469;-58
2022/01/19 08:50:15;;;;;;;10.73;6.82;;;8.20;56.90;;;;;;6232565;23;20393;-58
2022/01/19 08:52:45;;;;;;;15.85;7.07;;;8.20;56.80;;;;;;6233168;23;20011;-58
2022/01/19 08:55:12;;;;;;;9.43;6.68;;;8.20;56.60;;;;;;6228759;23;20334;-57
2022/01/19 08:57:39;;;;;;;11.13;6.72;;;8.20;56.70;;;;;;6232299;23;20000;-58
2022/01/19 09:00:08;;;;;;;11.35;6.57;;;8.20;56.60;;;;;;6228525;23;20000;-58
2022/01/19 09:02:35;;;;;;;10.27;6.28;;;8.20;56.70;;;;;;6227280;22;20004;-58
2022/01/19 09:05:03;;;;;;;10.80;5.90;;;8.30;56.60;;;;;;6233618;23;20005;-58
2022/01/19 09:07:29;;;;;;;14.30;7.20;;;8.20;56.50;;;;;;6231370;23;20353;-58
2022/01/19 09:09:55;;;;;;;15.43;8.13;;;8.30;56.60;;;;;;6233201;23;20000;-58
2022/01/19 09:12:21;;;;;;;12.18;7.75;;;8.30;56.50;;;;;;6230056;23;20007;-58
2022/01/19 09:14:48;;;;;;;14.32;7.50;;;8.30;56.60;;;;;;6232612;23;20008;-58
2022/01/19 09:17:14;;;;;;;8.93;6.88;;;8.30;56.60;;;;;;6229114;22;20218;-56
2022/01/19 09:19:40;;;;;;;10.30;6.93;;;8.30;56.50;;;;;;6234737;23;20322;-58
2022/01/19 09:22:09;;;;;;;16.25;7.57;;;8.30;56.50;;;;;;6233434;23;20000;-58
2022/01/19 09:24:37;;;;;;;11.07;6.90;;;8.30;56.40;;;;;;6230601;22;20011;-55
2022/01/19 09:27:05;;;;;;;11.38;6.82;;;8.30;56.40;;;;;;6232934;23;20015;-58
2022/01/19 09:29:31;;;;;;;11.90;6.47;;;8.30;56.30;;;;;;6232573;23;20337;-58
2022/01/19 09:32:00;;;;;;;13.35;6.95;;;8.30;56.40;;;;;;6231996;23;20008;-58
2022/01/19 09:34:28;;;;;;;9.68;5.85;;;8.40;56.20;;;;;;6232452;23;20008;-58
2022/01/19 09:36:54;;;;;;;12.30;6.40;;;8.40;56.10;;;;;;6233568;23;19996;-57
2022/01/19 09:39:23;;;;;;;8.75;6.25;;;8.40;56.10;;;;;;6233452;23;19996;-58
2022/01/19 09:41:50;;;;;;;8.63;6.55;;;8.30;56.00;;;;;;6233624;23;20019;-57
2022/01/19 09:44:18;;;;;;;10.00;5.55;;;8.30;56.10;;;;;;6232703;22;20019;-58
2022/01/19 09:46:45;;;;;;;21.92;9.73;;;8.40;56.00;;;;;;6231942;23;20011;-58
2022/01/19 09:49:13;;;;;;;14.85;8.35;;;8.40;55.90;;;;;;6233679;23;20004;-58
2022/01/19 09:51:40;;;;;;;11.98;7.10;;;8.30;55.80;;;;;;6232774;22;20004;-58
2022/01/19 09:54:07;;;;;;;8.07;5.88;;;8.40;55.80;;;;;;6229479;23;20004;-58
2022/01/19 09:56:33;;;;;;;9.13;6.00;;;8.40;55.90;;;;;;6233476;23;20015;-58
2022/01/19 09:58:59;;;;;;;10.68;7.15;;;8.40;55.90;;;;;;6233130;23;20246;-58
2022/01/19 10:01:26;;;;;;;11.77;6.90;;;8.40;56.00;;;;;;6230579;23;20004;-58
2022/01/19 10:03:53;;;;;;;11.02;6.35;;;8.40;56.00;;;;;;6233278;23;19992;-57
2022/01/19 10:06:23;;;;;;;11.43;7.35;;;8.40;56.00;;;;;;6234436;23;20003;-58
2022/01/19 10:08:49;;;;;;;10.70;7.82;;;8.40;55.90;;;;;;6231052;23;20007;-58
2022/01/19 10:17:08;;;;;;;12.07;7.35;;;8.40;56.00;;;;;;6236953;22;20320;-57
2022/01/19 10:19:38;;;;;;;9.93;5.85;;;8.40;55.90;;;;;;6232200;23;20003;-58
2022/01/19 10:22:29;;;;;;;11.73;6.75;;;8.40;56.00;;;;;;6234374;23;20000;-58
2022/01/19 10:25:04;;;;;;;14.75;8.73;;;8.40;56.00;;;;;;6232699;22;20012;-58
2022/01/19 10:27:43;;;;;;;20.10;10.95;;;8.50;56.50;;;;;;6232437;23;20016;-58
2022/01/19 10:30:09;;;;;;;23.42;14.52;;;8.50;56.10;;;;;;6231524;23;19997;-58
2022/01/19 10:32:55;;;;;;;12.32;7.95;;;8.50;56.10;;;;;;6233281;23;20008;-58
2022/01/19 10:35:30;;;;;;;10.80;7.30;;;8.50;55.80;;;;;;6235123;22;20000;-58
2022/01/19 10:38:16;;;;;;;12.80;7.38;;;8.50;55.70;;;;;;6233668;22;20004;-58
2022/01/19 10:41:07;;;;;;;19.08;11.27;;;8.50;55.70;;;;;;6233740;22;20004;-58
2022/01/19 10:43:46;;;;;;;15.00;9.15;;;8.50;55.70;;;;;;6228797;23;20004;-58
2022/01/19 10:46:23;;;;;;;18.52;10.85;;;8.50;55.60;;;;;;6231060;23;19996;-58
2022/01/19 10:49:01;;;;;;;10.32;7.00;;;8.50;55.60;;;;;;6234297;23;20250;-58
2022/01/19 10:51:45;;;;;;;15.07;8.57;;;8.50;55.60;;;;;;6245094;23;20002;-58
2022/01/19 10:54:22;;;;;;;14.73;7.28;;;8.50;55.70;;;;;;6244601;23;20008;-58
2022/01/19 10:56:54;;;;;;;11.50;6.70;;;8.40;55.70;;;;;;6234615;22;20011;-56
2022/01/19 10:59:26;;;;;;;9.30;6.43;;;8.40;55.60;;;;;;6235013;22;20392;-58
2022/01/19 11:01:56;;;;;;;12.15;7.03;;;8.50;55.70;;;;;;6229630;23;20008;-59
2022/01/19 11:04:37;;;;;;;9.52;6.25;;;8.40;55.60;;;;;;6231978;22;20011;-58
2022/01/19 11:07:13;;;;;;;9.48;6.72;;;8.40;55.50;;;;;;6232228;23;20489;-58
2022/01/19 11:09:59;;;;;;;12.25;7.63;;;8.40;55.50;;;;;;6232823;22;20323;-58
2022/01/19 11:12:30;;;;;;;10.02;7.07;;;8.40;55.40;;;;;;6226333;22;20000;-58
2022/01/19 11:14:56;;;;;;;9.73;7.15;;;8.40;55.50;;;;;;6229419;22;20007;-58
2022/01/19 11:17:23;;;;;;;11.23;7.25;;;8.40;55.30;;;;;;6228642;22;20020;-58
2022/01/19 11:19:49;;;;;;;10.35;6.78;;;8.40;55.80;;;;;;6229525;23;20447;-58
2022/01/19 11:22:15;;;;;;;11.70;7.75;;;8.30;55.30;;;;;;6227940;23;20004;-58
2022/01/19 11:25:14;;;;;;;12.02;7.78;;;8.30;55.40;;;;;;6229131;23;20003;-58
2022/01/19 11:27:42;;;;;;;12.50;8.25;;;8.30;55.40;;;;;;6171242;22;20001;-58
2022/01/19 11:30:18;;;;;;;8.85;6.90;;;8.30;55.40;;;;;;6225062;23;20472;-58
2022/01/19 11:33:25;;;;;;;13.40;7.70;;;8.30;55.30;;;;;;6226805;22;20011;-58
2022/01/19 11:36:16;;;;;;;11.02;7.38;;;8.30;55.10;;;;;;6227990;23;20345;-58
2022/01/19 11:38:45;;;;;;;10.27;7.40;;;8.30;55.20;;;;;;6244347;23;20007;-58
2022/01/19 11:41:14;;;;;;;13.20;8.00;;;8.30;55.20;;;;;;6233179;23;20789;-58
2022/01/19 11:43:57;;;;;;;11.70;7.65;;;8.30;55.30;;;;;;6233800;23;20556;-58
2022/01/19 11:46:36;;;;;;;10.10;7.35;;;8.30;55.10;;;;;;6241580;23;20035;-58
2022/01/19 11:49:05;;;;;;;12.82;7.40;;;8.30;55.10;;;;;;6242581;23;20004;-58
2022/01/19 11:51:35;;;;;;;11.48;7.78;;;8.30;55.00;;;;;;6233554;22;20004;-58
2022/01/19 11:54:27;;;;;;;11.93;7.55;;;8.20;55.00;;;;;;6233351;22;20008;-57
2022/01/19 11:56:59;;;;;;;13.07;8.18;;;8.20;55.30;;;;;;6244104;23;20004;-56
2022/01/19 11:59:32;;;;;;;12.07;8.60;;;8.20;55.40;;;;;;6234497;23;19992;-58
2022/01/19 12:02:33;;;;;;;10.88;7.80;;;8.20;55.30;;;;;;6229206;22;20004;-58
2022/01/19 12:04:59;;;;;;;13.75;7.40;;;8.20;55.30;;;;;;6230970;22;20004;-58
2022/01/19 12:07:52;;;;;;;10.80;7.35;;;8.20;55.50;;;;;;6233925;23;20023;-58
2022/01/19 12:10:20;;;;;;;10.93;7.82;;;8.10;55.50;;;;;;6243996;23;20429;-58
2022/01/19 12:13:35;;;;;;;10.35;8.27;;;8.20;55.70;;;;;;6235259;23;20008;-58
2022/01/19 12:16:10;;;;;;;12.82;7.97;;;8.10;55.70;;;;;;6232467;23;20442;-58
2022/01/19 12:18:42;;;;;;;12.35;8.50;;;8.20;55.80;;;;;;6231818;23;20008;-58
2022/01/19 12:21:11;;;;;;;10.82;8.13;;;8.10;55.60;;;;;;6233222;23;19992;-58
2022/01/19 12:23:39;;;;;;;12.32;8.52;;;8.20;55.60;;;;;;6233858;23;20322;-57
2022/01/19 12:26:08;;;;;;;13.25;8.27;;;8.20;55.90;;;;;;6235057;23;19996;-56
2022/01/19 12:28:52;;;;;;;12.93;8.65;;;8.20;55.90;;;;;;6233332;22;20004;-58
2022/01/19 12:31:24;;;;;;;13.93;8.52;;;8.20;55.70;;;;;;6233750;23;20007;-56
2022/01/19 12:34:02;;;;;;;28.60;9.13;;;8.20;55.80;;;;;;6232381;23;19996;-58
2022/01/19 12:36:54;;;;;;;12.63;9.15;;;8.20;56.30;;;;;;6233295;23;20004;-58
2022/01/19 12:39:26;;;;;;;12.70;8.80;;;8.20;55.90;;;;;;6233697;22;20007;-58
2022/01/19 12:42:02;;;;;;;11.30;8.60;;;8.30;55.80;;;;;;6232571;22;20329;-58
2022/01/19 12:44:39;;;;;;;11.85;8.38;;;8.30;55.60;;;;;;6233440;23;20000;-59
2022/01/19 12:47:27;;;;;;;11.05;8.10;;;8.30;55.60;;;;;;6232814;23;19992;-58
2022/01/19 12:50:04;;;;;;;13.25;9.55;;;8.30;55.50;;;;;;6233770;23;20001;-58
2022/01/19 12:52:32;;;;;;;13.77;9.65;;;8.30;55.60;;;;;;6244964;23;20026;-56
2022/01/19 12:55:11;;;;;;;13.80;9.20;;;8.30;55.50;;;;;;6233981;23;20008;-59
2022/01/19 12:57:38;;;;;;;15.07;9.30;;;8.30;55.30;;;;;;6243684;23;20000;-59
2022/01/19 13:00:08;;;;;;;15.98;9.55;;;8.30;55.40;;;;;;6231810;23;20004;-58
2022/01/19 13:02:34;;;;;;;13.85;9.30;;;8.20;55.30;;;;;;6228749;22;20144;-58
2022/01/19 13:05:06;;;;;;;15.75;9.90;;;8.30;55.40;;;;;;6227885;23;20468;-58
2022/01/19 13:07:36;;;;;;;14.32;9.20;;;8.20;55.40;;;;;;6225489;23;20012;-59
2022/01/19 13:12:57;;;;;;;12.60;8.88;;;8.20;55.50;;;;;;6226725;23;20019;-59
2022/01/19 13:15:59;;;;;;;12.15;9.10;;;8.20;55.60;;;;;;6236343;23;20207;-57
2022/01/19 13:18:34;;;;;;;13.77;9.05;;;8.20;55.70;;;;;;6223055;22;20456;-58
2022/01/19 13:21:04;;;;;;;16.27;8.75;;;8.20;56.10;;;;;;6231527;23;20353;-59
2022/01/19 13:23:33;;;;;;;16.33;9.73;;;8.20;55.60;;;;;;6233178;23;20036;-58
2022/01/19 13:26:11;;;;;;;14.55;8.90;;;8.20;55.50;;;;;;6232246;23;20043;-58
2022/01/19 13:28:38;;;;;;;13.77;9.50;;;8.20;55.50;;;;;;6231789;22;20000;-58
2022/01/19 13:31:19;;;;;;;13.60;9.52;;;8.20;55.50;;;;;;6232663;23;20436;-59
2022/01/19 13:34:00;;;;;;;15.07;9.98;;;8.20;55.40;;;;;;6243639;23;20000;-58
2022/01/19 13:36:36;;;;;;;18.40;9.93;;;8.20;55.40;;;;;;6233562;22;20011;-58
2022/01/19 13:39:04;;;;;;;14.00;9.73;;;8.20;55.40;;;;;;6243469;23;20413;-58
2022/01/19 13:41:31;;;;;;;17.05;10.35;;;8.20;55.50;;;;;;6232699;22;20012;-58
2022/01/19 13:44:08;;;;;;;14.18;9.88;;;8.20;55.60;;;;;;6233010;23;20397;-58
2022/01/19 13:46:39;;;;;;;16.98;10.73;;;8.10;55.50;;;;;;6230319;22;20362;-58
2022/01/19 13:49:05;;;;;;;19.67;11.70;;;8.10;55.60;;;;;;6232833;22;20000;-58
2022/01/19 13:51:37;;;;;;;17.45;11.95;;;8.10;55.50;;;;;;6232671;23;19996;-58
2022/01/19 13:54:05;;;;;;;21.73;13.43;;;8.10;55.50;;;;;;6232773;22;20005;-58
2022/01/19 13:56:36;;;;;;;24.08;13.77;;;8.10;55.30;;;;;;6230410;23;19996;-58
2022/01/19 13:59:10;;;;;;;24.85;13.68;;;8.10;55.20;;;;;;6232734;23;20000;-58
2022/01/19 14:01:37;;;;;;;20.92;14.63;;;8.10;55.30;;;;;;6229441;23;20035;-58
2022/01/19 14:04:09;;;;;;;23.48;14.70;;;8.10;55.30;;;;;;6230083;23;20004;-58
2022/01/19 14:06:37;;;;;;;23.55;14.20;;;8.10;55.30;;;;;;6243807;23;20008;-58
2022/01/19 14:09:07;;;;;;;24.20;15.35;;;8.10;55.30;;;;;;6233210;23;19997;-58
2022/01/19 14:11:34;;;;;;;32.88;15.65;;;8.10;55.40;;;;;;6231903;23;20405;-58
2022/01/19 14:14:05;;;;;;;24.10;15.32;;;8.10;55.40;;;;;;6233162;23;20325;-58
2022/01/19 14:16:36;;;;;;;28.33;16.33;;;8.10;55.40;;;;;;6239295;22;20699;-59
2022/01/19 14:19:25;;;;;;;24.45;15.65;;;8.10;55.50;;;;;;6242354;23;20007;-58
2022/01/19 14:22:05;;;;;;;24.92;15.35;;;8.00;55.30;;;;;;6233010;23;20008;-58
2022/01/19 14:24:58;;;;;;;24.33;15.05;;;8.00;55.30;;;;;;6242056;23;20307;-59
2022/01/19 14:27:24;;;;;;;30.48;15.98;;;8.00;55.40;;;;;;6228699;23;20551;-58
2022/01/19 14:29:55;;;;;;;25.95;16.65;;;8.00;55.60;;;;;;6233631;23;20432;-59
2022/01/19 14:32:38;;;;;;;24.88;15.40;;;8.00;55.60;;;;;;6229332;23;20011;-58
2022/01/19 14:35:26;;;;;;;24.50;15.98;;;8.00;55.60;;;;;;6242945;23;20019;-58
2022/01/19 14:38:13;;;;;;;26.33;16.27;;;8.00;55.70;;;;;;6233546;23;20003;-58
2022/01/19 14:41:00;;;;;;;26.58;15.75;;;8.00;55.90;;;;;;6244312;23;20424;-58
2022/01/19 14:43:48;;;;;;;27.20;17.13;;;7.90;55.90;;;;;;6235116;23;20313;-58
2022/01/19 14:46:25;;;;;;;31.27;17.60;;;7.90;56.00;;;;;;6243186;23;20000;-59
2022/01/19 14:48:54;;;;;;;29.33;17.67;;;7.90;56.00;;;;;;6231830;23;20004;-58